Time;durP1;ratioP1;P1;durP2;ratioP2;P2;SDS_P1;SDS_P2;PMS_P1;PMS_P2;Temp;Humidity;BMP_temperature;BMP_pressure;BME280_temperature;BME280_humidity;BME280_pressure;Samples;Min_cycle;Max_cycle;Signal;HPM_P1;HPM_P2
2021/06/10 00:02:21;;;;;;;7.17;2.17;;;;;;;23.15;65.76;100407.59;1720525;81;21064;-59
2021/06/10 00:04:47;;;;;;;2.45;1.67;;;;;;;23.14;65.73;100407.92;1724875;81;21057;-59
2021/06/10 00:07:15;;;;;;;2.95;1.80;;;;;;;23.12;65.73;100411.64;1730371;81;20960;-60
2021/06/10 00:09:42;;;;;;;2.52;2.00;;;;;;;23.12;65.71;100418.58;1728025;81;21099;-59
2021/06/10 00:12:10;;;;;;;2.77;1.70;;;;;;;23.14;65.77;100417.64;1739625;81;23178;-59
2021/06/10 00:14:36;;;;;;;2.27;1.77;;;;;;;23.13;65.84;100410.47;1738596;82;21080;-59
2021/06/10 00:17:03;;;;;;;4.00;2.08;;;;;;;23.14;65.90;100412.09;1747191;80;21080;-59
2021/06/10 00:19:30;;;;;;;2.85;1.90;;;;;;;23.14;65.97;100410.13;1760370;80;21209;-59
2021/06/10 00:21:56;;;;;;;2.55;1.72;;;;;;;23.14;66.00;100415.68;1753765;80;20989;-59
2021/06/10 00:24:22;;;;;;;2.20;1.67;;;;;;;23.13;65.99;100405.73;1758892;80;21097;-59
2021/06/10 00:26:48;;;;;;;2.02;1.70;;;;;;;23.15;65.97;100413.72;1750261;80;21413;-58
2021/06/10 00:29:15;;;;;;;2.67;1.57;;;;;;;23.14;65.93;100409.31;1736129;81;21063;-59
2021/06/10 00:31:41;;;;;;;3.75;1.80;;;;;;;23.12;65.89;100406.91;1740483;81;21067;-59
2021/06/10 00:34:07;;;;;;;2.87;2.02;;;;;;;23.11;65.86;100403.08;1740768;81;21492;-59
2021/06/10 00:36:33;;;;;;;1.98;1.65;;;;;;;23.10;65.82;100408.38;1740720;81;21919;-58
2021/06/10 00:38:59;;;;;;;4.12;1.95;;;;;;;23.10;65.80;100402.84;1740256;81;21064;-58
2021/06/10 00:41:32;;;;;;;2.55;1.75;;;;;;;23.11;65.80;100401.69;1740547;81;20923;-59
2021/06/10 00:43:59;;;;;;;2.17;1.57;;;;;;;23.12;65.86;100398.58;1738069;81;21458;-57
2021/06/10 00:46:27;;;;;;;2.80;1.70;;;;;;;23.13;65.94;100396.59;1740582;81;21057;-56
2021/06/10 00:48:53;;;;;;;3.12;2.15;;;;;;;23.13;66.01;100391.85;1740610;81;21157;-57
2021/06/10 00:51:19;;;;;;;3.10;1.70;;;;;;;23.13;66.02;100392.42;1740917;81;21080;-57
2021/06/10 00:53:46;;;;;;;2.00;1.67;;;;;;;23.12;66.02;100390.83;1741868;81;21068;-59
2021/06/10 00:56:12;;;;;;;2.40;1.98;;;;;;;23.11;65.97;100383.08;1740309;81;21623;-58
2021/06/10 00:58:38;;;;;;;2.37;1.65;;;;;;;23.11;65.93;100385.85;1740389;81;21016;-58
2021/06/10 01:01:05;;;;;;;2.60;1.67;;;;;;;23.10;65.89;100384.80;1740329;81;21534;-58
2021/06/10 01:03:31;;;;;;;3.05;1.90;;;;;;;23.09;65.85;100383.17;1741039;81;21055;-58
2021/06/10 01:05:59;;;;;;;1.90;1.60;;;;;;;23.06;65.84;100388.03;1739455;81;21136;-58
2021/06/10 01:08:55;;;;;;;2.65;1.72;;;;;;;23.04;65.81;100391.14;1712904;81;21032;-58
2021/06/10 01:12:07;;;;;;;2.22;1.40;;;;;;;23.06;65.78;100389.42;1740194;81;21140;-58
2021/06/10 01:15:13;;;;;;;2.47;1.60;;;;;;;23.05;65.80;100393.34;1741604;81;20929;-57
2021/06/10 01:17:44;;;;;;;2.65;1.60;;;;;;;23.04;65.88;100392.53;1740548;81;21079;-58
2021/06/10 01:20:18;;;;;;;2.65;1.65;;;;;;;23.03;65.97;100399.25;1738045;81;21076;-58
2021/06/10 01:23:02;;;;;;;3.42;1.85;;;;;;;23.03;66.01;100403.98;1737566;81;21538;-58
2021/06/10 01:25:58;;;;;;;2.17;1.47;;;;;;;23.02;66.01;100396.81;1680102;81;21561;-58
2021/06/10 01:28:35;;;;;;;2.77;2.00;;;;;;;23.01;65.99;100407.09;1732120;81;21827;-59
2021/06/10 01:31:09;;;;;;;3.35;1.75;;;;;;;22.98;65.94;100402.24;1737716;81;21009;-58
2021/06/10 01:33:55;;;;;;;2.90;1.77;;;;;;;22.97;65.91;100399.80;1714496;81;21032;-59
2021/06/10 01:36:33;;;;;;;3.10;2.00;;;;;;;22.95;65.88;100402.94;1712450;81;21446;-58
2021/06/10 01:39:11;;;;;;;2.87;1.52;;;;;;;22.92;65.89;100393.08;1715112;81;21053;-58
2021/06/10 01:41:39;;;;;;;2.25;1.60;;;;;;;22.93;65.84;100392.75;1715757;81;21738;-58
2021/06/10 01:44:07;;;;;;;2.58;1.72;;;;;;;22.94;65.90;100388.02;1718270;81;21423;-57
2021/06/10 01:46:33;;;;;;;2.60;1.95;;;;;;;22.94;66.00;100387.44;1714804;81;21470;-59
2021/06/10 01:49:00;;;;;;;2.17;1.50;;;;;;;22.96;66.07;100384.30;1725928;81;21888;-58
2021/06/10 01:51:29;;;;;;;2.52;1.70;;;;;;;22.96;66.15;100384.30;1725451;81;21507;-58
2021/06/10 01:53:59;;;;;;;2.77;1.77;;;;;;;22.96;66.17;100385.69;1724557;81;21108;-59
2021/06/10 01:56:25;;;;;;;2.90;1.60;;;;;;;22.96;66.16;100383.73;1723995;81;21096;-59
2021/06/10 01:58:52;;;;;;;3.27;2.00;;;;;;;22.96;66.13;100385.11;1727775;81;21103;-59
2021/06/10 02:01:27;;;;;;;2.47;1.75;;;;;;;22.96;66.08;100389.27;1725420;81;21020;-60
2021/06/10 02:03:56;;;;;;;2.50;1.67;;;;;;;22.95;66.02;100383.52;1694732;83;21412;-61
2021/06/10 02:06:22;;;;;;;1.87;1.60;;;;;;;22.94;65.98;100381.08;1723278;81;21269;-59
2021/06/10 02:08:48;;;;;;;2.22;1.60;;;;;;;22.92;65.98;100383.37;1723755;81;21313;-59
2021/06/10 02:11:16;;;;;;;2.25;1.57;;;;;;;22.91;65.96;100385.93;1725507;81;21113;-58
2021/06/10 02:13:44;;;;;;;2.95;1.50;;;;;;;22.91;65.91;100383.97;1724026;81;21087;-58
2021/06/10 02:16:10;;;;;;;2.37;1.50;;;;;;;22.93;65.95;100383.03;1725540;81;21344;-59
2021/06/10 02:18:39;;;;;;;2.37;1.45;;;;;;;22.93;66.00;100388.58;1690135;82;21800;-59
2021/06/10 02:21:07;;;;;;;2.47;1.92;;;;;;;22.95;66.09;100389.06;1712463;81;20997;-59
2021/06/10 02:23:41;;;;;;;2.87;1.60;;;;;;;22.95;66.16;100388.25;1700436;83;21104;-59
2021/06/10 02:26:08;;;;;;;2.52;1.67;;;;;;;22.95;66.16;100394.61;1716975;81;21505;-59
2021/06/10 02:28:34;;;;;;;2.02;1.42;;;;;;;22.96;66.17;100396.78;1694148;83;21061;-60
2021/06/10 02:31:03;;;;;;;2.70;1.42;;;;;;;22.95;66.15;100395.19;1710153;81;21728;-57
2021/06/10 02:33:29;;;;;;;2.10;1.60;;;;;;;22.96;66.10;100396.78;1713817;81;21060;-58
2021/06/10 02:35:55;;;;;;;2.50;1.77;;;;;;;22.95;66.07;100395.19;1688019;83;21091;-58
2021/06/10 02:38:22;;;;;;;1.87;1.50;;;;;;;22.93;66.00;100396.91;1720675;81;21603;-58
2021/06/10 02:40:50;;;;;;;2.35;1.70;;;;;;;22.91;65.99;100395.64;1689047;83;20989;-58
2021/06/10 02:43:16;;;;;;;2.15;1.40;;;;;;;22.89;65.96;100395.16;1692652;83;21562;-60
2021/06/10 02:45:44;;;;;;;2.75;1.75;;;;;;;22.89;65.93;100390.42;1692385;83;21010;-58
2021/06/10 02:48:10;;;;;;;2.55;1.50;;;;;;;22.91;65.94;100390.91;1712584;82;21092;-58
2021/06/10 02:50:39;;;;;;;2.77;1.67;;;;;;;22.92;66.02;100388.91;1693018;83;21046;-58
2021/06/10 02:53:06;;;;;;;3.27;1.60;;;;;;;22.93;66.08;100392.75;1719327;81;20997;-59
2021/06/10 02:55:36;;;;;;;4.37;1.82;;;;;;;22.91;66.13;100389.52;1692228;83;21571;-58
2021/06/10 02:58:02;;;;;;;1.95;1.50;;;;;;;22.91;66.15;100392.30;1715689;81;21064;-59
2021/06/10 03:00:31;;;;;;;2.00;1.57;;;;;;;22.91;66.15;100389.52;1640373;84;21020;-58
2021/06/10 03:02:57;;;;;;;3.10;1.60;;;;;;;22.92;66.11;100397.23;1687227;83;21132;-58
2021/06/10 03:05:25;;;;;;;2.80;1.60;;;;;;;22.90;66.08;100396.21;1707065;82;21096;-57
2021/06/10 03:07:52;;;;;;;2.22;1.77;;;;;;;22.90;66.04;100396.21;1701935;82;23202;-58
2021/06/10 03:10:23;;;;;;;2.92;1.67;;;;;;;22.89;66.01;100397.94;1689740;83;21591;-58
2021/06/10 03:12:49;;;;;;;1.95;1.50;;;;;;;22.88;65.97;100399.08;1716467;81;21107;-58
2021/06/10 03:15:16;;;;;;;2.30;1.57;;;;;;;22.86;65.96;100400.02;1715893;81;21083;-58
2021/06/10 03:17:42;;;;;;;3.80;1.45;;;;;;;22.87;65.91;100398.87;1723049;81;21076;-58
2021/06/10 03:20:09;;;;;;;5.83;1.52;;;;;;;22.88;65.94;100406.02;1710376;81;21245;-57
2021/06/10 03:22:36;;;;;;;1.55;1.25;;;;;;;22.89;66.01;100405.68;1711669;82;21137;-58
2021/06/10 03:25:04;;;;;;;1.82;1.37;;;;;;;22.91;66.08;100408.12;1713580;81;21783;-58
2021/06/10 03:27:31;;;;;;;8.73;3.37;;;;;;;22.91;66.18;100402.00;1682620;83;21117;-58
2021/06/10 03:29:58;;;;;;;23.38;6.40;;;;;;;22.96;66.25;100406.49;1694467;83;21093;-59
2021/06/10 03:32:28;;;;;;;38.78;8.88;;;;;;;22.98;66.20;100409.75;1716279;82;23318;-57
2021/06/10 03:34:57;;;;;;;17.37;4.20;;;;;;;22.99;66.12;100405.25;1699334;83;21091;-60
2021/06/10 03:37:24;;;;;;;6.47;2.90;;;;;;;22.98;66.08;100409.17;1668265;84;21082;-58
2021/06/10 03:39:53;;;;;;;7.45;2.92;;;;;;;22.98;66.06;100409.17;1692826;83;21065;-58
2021/06/10 03:42:20;;;;;;;4.97;2.58;;;;;;;23.00;66.02;100413.79;1714543;82;21041;-58
2021/06/10 03:44:46;;;;;;;3.62;1.70;;;;;;;23.01;65.96;100410.44;1706906;81;21393;-58
2021/06/10 03:47:14;;;;;;;2.25;1.50;;;;;;;23.01;65.92;100415.42;1694534;83;21060;-58
2021/06/10 03:49:40;;;;;;;9.05;3.67;;;;;;;23.03;65.88;100414.52;1690335;83;21668;-59
2021/06/10 03:52:07;;;;;;;14.68;5.35;;;;;;;23.06;65.88;100411.05;1710523;83;21100;-57
2021/06/10 03:54:34;;;;;;;65.28;24.32;;;;;;;23.07;65.93;100411.28;1687808;83;21082;-58
2021/06/10 03:57:00;;;;;;;128.70;45.90;;;;;;;23.09;66.00;100411.73;1693735;83;22055;-58
2021/06/10 03:59:26;;;;;;;78.52;29.45;;;;;;;23.11;66.06;100414.99;1703329;83;21123;-62
2021/06/10 04:01:52;;;;;;;21.77;8.53;;;;;;;23.11;66.06;100417.77;1710655;81;21038;-58
2021/06/10 04:04:19;;;;;;;10.00;3.80;;;;;;;23.11;66.01;100419.72;1713396;81;21104;-58
2021/06/10 04:06:46;;;;;;;4.42;2.75;;;;;;;23.09;65.94;100416.47;1692219;84;20973;-58
2021/06/10 04:09:13;;;;;;;4.10;2.00;;;;;;;23.09;65.96;100416.47;1711089;83;21505;-59
2021/06/10 04:11:39;;;;;;;5.22;2.10;;;;;;;23.09;65.91;100421.45;1708639;82;20909;-59
2021/06/10 04:14:06;;;;;;;7.17;2.77;;;;;;;23.09;65.85;100423.41;1683192;83;21434;-59
2021/06/10 04:16:32;;;;;;;3.15;1.77;;;;;;;23.09;65.81;100430.34;1717276;81;21458;-58
2021/06/10 04:18:59;;;;;;;4.62;2.35;;;;;;;23.08;65.79;100424.58;1695528;81;21034;-61
2021/06/10 04:21:25;;;;;;;4.78;2.00;;;;;;;23.09;65.74;100429.77;1727889;81;21111;-59
2021/06/10 04:23:51;;;;;;;1.85;1.30;;;;;;;23.12;65.75;100428.29;1719869;81;21117;-62
2021/06/10 04:26:18;;;;;;;2.27;1.52;;;;;;;23.12;65.82;100435.23;1721107;81;21452;-63
2021/06/10 04:28:45;;;;;;;4.20;1.70;;;;;;;23.13;65.88;100436.83;1722199;81;21711;-65
2021/06/10 04:31:14;;;;;;;2.83;1.47;;;;;;;23.13;65.97;100437.64;1726451;81;21084;-62
2021/06/10 04:33:41;;;;;;;11.60;5.03;;;;;;;23.15;66.00;100441.47;1721139;81;21170;-63
2021/06/10 04:36:07;;;;;;;25.00;7.65;;;;;;;23.17;66.01;100437.76;1724342;81;21348;-62
2021/06/10 04:38:33;;;;;;;19.82;6.50;;;;;;;23.19;65.97;100441.02;1727704;81;21257;-62
2021/06/10 04:41:00;;;;;;;16.00;5.72;;;;;;;23.19;65.89;100437.67;1702555;81;21471;-62
2021/06/10 04:43:26;;;;;;;12.43;4.70;;;;;;;23.20;65.92;100442.07;1728779;81;21137;-61
2021/06/10 04:45:52;;;;;;;8.58;3.15;;;;;;;23.21;65.94;100438.72;1724785;81;21141;-61
2021/06/10 04:48:18;;;;;;;9.68;2.70;;;;;;;23.25;65.98;100445.78;1728485;81;21111;-62
2021/06/10 04:50:44;;;;;;;5.87;2.75;;;;;;;23.27;65.99;100442.06;1730504;81;21004;-61
2021/06/10 04:53:10;;;;;;;6.62;2.02;;;;;;;23.28;66.07;100447.28;1730754;81;21061;-63
2021/06/10 04:55:36;;;;;;;9.65;2.20;;;;;;;23.30;66.20;100442.78;1725528;81;21510;-62
2021/06/10 04:58:03;;;;;;;9.00;2.40;;;;;;;23.32;66.31;100446.01;1730133;81;21715;-61
2021/06/10 05:00:29;;;;;;;9.45;2.08;;;;;;;23.31;66.34;100445.20;1726507;81;21597;-62
2021/06/10 05:02:55;;;;;;;13.22;2.25;;;;;;;23.32;66.37;100443.23;1723678;81;21029;-62
2021/06/10 05:05:22;;;;;;;4.95;2.02;;;;;;;23.30;66.34;100444.95;1723639;81;21071;-62
2021/06/10 05:07:48;;;;;;;6.97;2.10;;;;;;;23.29;66.32;100443.36;1724971;81;21021;-62
2021/06/10 05:10:14;;;;;;;5.22;1.82;;;;;;;23.27;66.29;100444.27;1722718;81;21474;-62
2021/06/10 05:12:40;;;;;;;3.55;1.72;;;;;;;23.26;66.27;100452.35;1721283;81;21028;-62
2021/06/10 05:15:08;;;;;;;4.08;1.80;;;;;;;23.24;66.25;100451.91;1726675;81;21094;-61
2021/06/10 05:17:34;;;;;;;5.65;1.80;;;;;;;23.25;66.20;100454.92;1721694;81;21084;-62
2021/06/10 05:20:01;;;;;;;7.45;1.95;;;;;;;23.25;66.25;100454.11;1723469;81;21471;-61
2021/06/10 05:22:27;;;;;;;4.08;1.50;;;;;;;23.25;66.32;100456.88;1725912;81;21307;-62
2021/06/10 05:24:54;;;;;;;5.65;1.77;;;;;;;23.27;66.40;100456.76;1726574;81;21053;-62
2021/06/10 05:27:20;;;;;;;5.70;2.17;;;;;;;23.27;66.45;100451.78;1725680;81;21008;-62
2021/06/10 05:29:46;;;;;;;3.95;2.30;;;;;;;23.27;66.49;100455.94;1724705;81;20978;-61
2021/06/10 05:32:12;;;;;;;6.58;1.87;;;;;;;23.26;66.46;100454.31;1730258;81;21616;-62
2021/06/10 05:34:38;;;;;;;6.35;1.87;;;;;;;23.26;66.43;100450.97;1727648;81;21778;-62
2021/06/10 05:37:05;;;;;;;7.92;2.37;;;;;;;23.24;66.38;100449.12;1727368;81;21107;-61
2021/06/10 05:39:31;;;;;;;4.47;1.80;;;;;;;23.22;66.34;100451.42;1723870;81;21112;-61
2021/06/10 05:41:57;;;;;;;3.75;1.67;;;;;;;23.20;66.28;100453.75;1727235;81;21095;-63
2021/06/10 05:44:23;;;;;;;4.67;1.75;;;;;;;23.17;66.29;100453.84;1726155;81;21505;-61
2021/06/10 05:46:50;;;;;;;3.37;1.37;;;;;;;23.17;66.24;100457.19;1727169;81;21039;-62
2021/06/10 05:49:17;;;;;;;5.08;1.90;;;;;;;23.18;66.29;100462.98;1728355;81;21028;-62
2021/06/10 05:51:43;;;;;;;2.15;1.30;;;;;;;23.16;66.33;100461.14;1726688;81;21127;-62
2021/06/10 05:54:09;;;;;;;3.40;1.55;;;;;;;23.17;66.40;100464.94;1727118;81;21634;-62
2021/06/10 05:56:35;;;;;;;7.17;1.72;;;;;;;23.17;66.48;100459.95;1724822;81;22114;-62
2021/06/10 05:59:01;;;;;;;3.12;1.45;;;;;;;23.16;66.51;100459.75;1721046;81;22141;-62
2021/06/10 06:01:27;;;;;;;4.40;2.17;;;;;;;23.15;66.52;100465.06;1728945;81;21056;-62
2021/06/10 06:03:54;;;;;;;3.37;1.65;;;;;;;23.14;66.46;100465.62;1725200;81;21123;-61
2021/06/10 06:06:20;;;;;;;7.15;1.65;;;;;;;23.13;66.45;100465.39;1728476;81;20909;-61
2021/06/10 06:08:47;;;;;;;3.35;1.67;;;;;;;23.12;66.42;100467.95;1720542;81;21123;-62
2021/06/10 06:11:14;;;;;;;4.67;1.60;;;;;;;23.10;66.39;100468.86;1726731;81;21455;-61
2021/06/10 06:14:06;;;;;;;6.37;1.85;;;;;;;23.08;66.37;100464.82;1725862;81;20992;-61
2021/06/10 06:16:20;;;;;;;4.10;1.40;;;;;;;23.09;66.33;100461.68;1720013;81;21561;-61
2021/06/10 06:18:48;;;;;;;5.80;2.33;;;;;;;23.09;66.36;100463.06;1723889;81;21056;-61
2021/06/10 06:21:14;;;;;;;5.45;1.65;;;;;;;23.10;66.44;100467.47;1712646;81;21144;-62
2021/06/10 06:23:41;;;;;;;3.92;1.67;;;;;;;23.12;66.51;100465.75;1708260;83;21453;-61
2021/06/10 06:26:09;;;;;;;2.95;1.85;;;;;;;23.12;66.57;100470.73;1708177;83;21065;-61
2021/06/10 06:28:41;;;;;;;4.12;1.55;;;;;;;23.12;66.58;100467.95;1709042;83;21023;-61
2021/06/10 06:31:09;;;;;;;4.03;1.77;;;;;;;23.13;66.56;100466.78;1705988;83;21290;-62
2021/06/10 06:33:35;;;;;;;4.95;2.55;;;;;;;23.14;66.52;100467.59;1703338;83;21499;-61
2021/06/10 06:36:01;;;;;;;3.72;1.77;;;;;;;23.14;66.48;100470.37;1705724;83;21112;-61
2021/06/10 06:38:27;;;;;;;3.40;1.72;;;;;;;23.14;66.42;100468.41;1719574;81;20999;-62
2021/06/10 06:40:53;;;;;;;4.60;1.90;;;;;;;23.13;66.36;100468.17;1719050;81;21067;-62
2021/06/10 06:43:20;;;;;;;6.10;1.60;;;;;;;23.14;66.32;100473.95;1728565;81;21032;-61
2021/06/10 06:45:46;;;;;;;3.95;1.55;;;;;;;23.15;66.25;100467.26;1719906;81;21036;-62
2021/06/10 06:48:14;;;;;;;5.70;2.17;;;;;;;23.18;66.25;100472.69;1694971;83;21499;-61
2021/06/10 06:50:40;;;;;;;3.33;1.67;;;;;;;23.17;66.30;100467.71;1707070;83;21088;-61
2021/06/10 06:53:06;;;;;;;2.80;1.57;;;;;;;23.19;66.36;100473.75;1705487;83;21013;-61
2021/06/10 06:55:32;;;;;;;3.00;1.50;;;;;;;23.21;66.40;100467.86;1724110;81;21894;-62
2021/06/10 06:57:58;;;;;;;4.33;1.70;;;;;;;23.23;66.40;100480.80;1719467;81;21016;-62
2021/06/10 07:00:25;;;;;;;3.12;1.75;;;;;;;23.23;66.37;100475.25;1724891;81;21148;-62
2021/06/10 07:02:51;;;;;;;2.55;1.60;;;;;;;23.22;66.32;100470.27;1720011;81;21079;-62
2021/06/10 07:05:17;;;;;;;3.12;1.70;;;;;;;23.22;66.26;100480.56;1720108;81;21142;-61
2021/06/10 07:07:43;;;;;;;4.05;1.70;;;;;;;23.20;66.21;100471.78;1716389;81;21560;-62
2021/06/10 07:10:11;;;;;;;3.55;1.62;;;;;;;23.18;66.17;100472.12;1722599;81;21080;-61
2021/06/10 07:12:37;;;;;;;3.77;1.47;;;;;;;23.14;66.14;100472.57;1712470;82;21143;-61
2021/06/10 07:15:05;;;;;;;2.83;1.77;;;;;;;23.15;66.12;100479.75;1709816;82;21426;-61
2021/06/10 07:17:31;;;;;;;2.77;1.50;;;;;;;23.15;66.16;100473.38;1709990;82;21155;-61
2021/06/10 07:20:00;;;;;;;4.22;1.57;;;;;;;23.15;66.21;100477.55;1711062;82;21060;-62
2021/06/10 07:22:30;;;;;;;2.42;1.60;;;;;;;23.15;66.30;100483.91;1712481;82;20969;-61
2021/06/10 07:24:57;;;;;;;2.58;1.57;;;;;;;23.16;66.37;100481.37;1685999;83;21914;-62
2021/06/10 07:27:23;;;;;;;2.95;1.40;;;;;;;23.18;66.39;100487.95;1714007;82;20984;-62
2021/06/10 07:29:49;;;;;;;3.05;1.72;;;;;;;23.17;66.38;100489.09;1712131;82;21393;-61
2021/06/10 07:32:15;;;;;;;3.87;1.90;;;;;;;23.19;66.34;100486.23;1688144;83;21095;-61
2021/06/10 07:34:41;;;;;;;2.33;1.72;;;;;;;23.20;66.29;100488.44;1709817;83;21131;-61
2021/06/10 07:37:08;;;;;;;2.65;1.52;;;;;;;23.20;66.22;100500.36;1721054;81;21235;-62
2021/06/10 07:39:35;;;;;;;3.98;1.60;;;;;;;23.18;66.18;100490.73;1724765;81;21128;-62
2021/06/10 07:42:01;;;;;;;2.92;1.50;;;;;;;23.17;66.12;100497.42;1727058;81;21505;-62
2021/06/10 07:44:28;;;;;;;2.98;1.47;;;;;;;23.17;66.08;100493.27;1718983;81;21486;-61
2021/06/10 07:46:54;;;;;;;4.37;1.70;;;;;;;23.16;66.10;100495.25;1689468;83;20956;-61
2021/06/10 07:49:20;;;;;;;2.25;1.37;;;;;;;23.17;66.16;100499.62;1725162;81;21093;-61
2021/06/10 07:51:46;;;;;;;3.85;1.77;;;;;;;23.18;66.24;100493.50;1707372;83;21447;-62
2021/06/10 07:54:13;;;;;;;3.92;1.70;;;;;;;23.18;66.30;100497.67;1716460;81;21076;-61
2021/06/10 07:56:39;;;;;;;1.90;1.47;;;;;;;23.18;66.33;100500.44;1703180;83;21071;-61
2021/06/10 07:59:05;;;;;;;2.33;1.52;;;;;;;23.17;66.31;100497.42;1720558;81;21016;-62
2021/06/10 08:01:31;;;;;;;3.15;1.80;;;;;;;23.18;66.28;100507.38;1706662;83;21036;-61
2021/06/10 08:03:58;;;;;;;3.37;1.65;;;;;;;23.16;66.25;100496.64;1716374;81;21035;-62
2021/06/10 08:06:24;;;;;;;3.75;1.67;;;;;;;23.16;66.22;100510.52;1718027;82;21517;-62
2021/06/10 08:08:50;;;;;;;4.58;2.17;;;;;;;23.13;66.18;100507.02;1711434;82;21928;-62
2021/06/10 08:11:17;;;;;;;2.60;1.70;;;;;;;23.12;66.15;100500.44;1718804;81;21003;-62
2021/06/10 08:13:43;;;;;;;3.30;1.77;;;;;;;23.13;66.12;100503.42;1716985;81;22198;-62
2021/06/10 08:16:09;;;;;;;3.15;1.50;;;;;;;23.13;66.12;100505.63;1708746;82;21057;-61
2021/06/10 08:18:35;;;;;;;2.42;1.62;;;;;;;23.15;66.21;100513.62;1711817;82;20953;-62
2021/06/10 08:21:02;;;;;;;2.27;1.57;;;;;;;23.16;66.27;100511.91;1715504;81;21021;-62
2021/06/10 08:23:30;;;;;;;2.10;1.67;;;;;;;23.16;66.33;100507.74;1711361;82;21517;-62
2021/06/10 08:26:04;;;;;;;2.35;1.50;;;;;;;23.16;66.36;100506.36;1753701;80;21442;-62
2021/06/10 08:28:30;;;;;;;2.90;1.35;;;;;;;23.17;66.33;100501.59;1731521;81;21168;-62
2021/06/10 08:30:57;;;;;;;2.08;1.60;;;;;;;23.16;66.30;100504.97;1718808;81;21468;-62
2021/06/10 08:33:23;;;;;;;3.27;1.60;;;;;;;23.16;66.24;100509.13;1726240;81;21057;-62
2021/06/10 08:35:51;;;;;;;2.12;1.47;;;;;;;23.14;66.20;100514.20;1725796;81;21021;-62
2021/06/10 08:38:18;;;;;;;3.72;1.70;;;;;;;23.14;66.18;100519.75;1725053;81;21234;-62
2021/06/10 08:40:44;;;;;;;2.67;1.20;;;;;;;23.12;66.15;100517.09;1721302;81;21423;-62
2021/06/10 08:43:11;;;;;;;2.50;1.50;;;;;;;23.14;66.08;100516.16;1724578;81;21008;-62
2021/06/10 08:45:41;;;;;;;2.27;1.57;;;;;;;23.14;66.11;100511.42;1697252;83;21032;-62
2021/06/10 08:48:08;;;;;;;3.08;1.60;;;;;;;23.15;66.19;100515.02;1726935;81;21582;-62
2021/06/10 08:50:34;;;;;;;3.20;1.40;;;;;;;23.17;66.26;100519.05;1726158;81;21085;-63
2021/06/10 08:53:01;;;;;;;3.60;1.85;;;;;;;23.19;66.33;100518.73;1723027;81;21869;-62
2021/06/10 08:55:28;;;;;;;3.27;1.75;;;;;;;23.19;66.35;100518.73;1724770;81;20946;-63
2021/06/10 08:57:54;;;;;;;3.47;1.60;;;;;;;23.19;66.30;100529.25;1725719;81;21471;-62
2021/06/10 09:00:23;;;;;;;2.15;1.80;;;;;;;23.20;66.27;100525.91;1726358;81;20997;-62
2021/06/10 09:02:54;;;;;;;2.45;1.57;;;;;;;23.20;66.20;100517.58;1728619;81;22161;-63
2021/06/10 09:05:20;;;;;;;2.90;1.57;;;;;;;23.19;66.15;100528.44;1730506;81;21021;-62
2021/06/10 09:07:59;;;;;;;2.40;1.80;;;;;;;23.18;66.10;100527.63;1725954;81;21025;-62
2021/06/10 09:10:29;;;;;;;2.40;1.45;;;;;;;23.16;66.08;100532.72;1727597;81;20949;-62
2021/06/10 09:12:58;;;;;;;2.27;1.42;;;;;;;23.18;66.03;100526.81;1720525;81;21027;-62
2021/06/10 09:15:27;;;;;;;1.90;1.70;;;;;;;23.19;66.03;100525.66;1725278;81;21727;-62
2021/06/10 09:18:00;;;;;;;2.75;1.35;;;;;;;23.20;66.10;100530.06;1728407;81;21076;-62
2021/06/10 09:20:39;;;;;;;2.27;1.57;;;;;;;23.20;66.16;100522.55;1725900;81;21001;-62
2021/06/10 09:23:18;;;;;;;2.08;1.52;;;;;;;23.22;66.21;100526.36;1722317;81;21983;-62
2021/06/10 09:25:50;;;;;;;2.17;1.63;;;;;;;23.22;66.25;100520.23;1723401;81;21064;-62
2021/06/10 09:28:16;;;;;;;2.27;1.47;;;;;;;23.23;66.20;100525.21;1721599;81;21480;-62
2021/06/10 09:30:48;;;;;;;2.33;1.65;;;;;;;23.23;66.17;100527.41;1726357;81;21616;-62
2021/06/10 09:33:20;;;;;;;2.22;1.80;;;;;;;23.25;66.11;100527.08;1723886;81;21033;-62
2021/06/10 09:35:46;;;;;;;2.25;1.72;;;;;;;23.23;66.04;100518.27;1723883;81;21049;-62
2021/06/10 09:38:17;;;;;;;2.85;1.55;;;;;;;23.23;66.02;100521.86;1728841;81;21069;-62
2021/06/10 09:40:43;;;;;;;2.87;1.90;;;;;;;23.23;65.96;100521.05;1748020;80;21075;-64
2021/06/10 09:43:10;;;;;;;3.47;1.80;;;;;;;23.23;65.91;100513.54;1716793;81;21050;-62
2021/06/10 09:45:37;;;;;;;2.47;1.75;;;;;;;23.27;65.93;100517.83;1713708;81;21052;-62
2021/06/10 09:48:05;;;;;;;2.20;1.45;;;;;;;23.30;65.99;100509.41;1716423;81;20996;-62
2021/06/10 09:50:43;;;;;;;2.42;1.60;;;;;;;23.33;66.05;100505.94;1714031;81;21012;-62
2021/06/10 09:53:15;;;;;;;2.42;1.65;;;;;;;23.35;66.09;100500.83;1719054;81;21043;-62
2021/06/10 09:55:48;;;;;;;2.00;1.60;;;;;;;23.38;66.08;100503.73;1710675;81;21097;-62
2021/06/10 09:58:20;;;;;;;2.45;1.60;;;;;;;23.40;66.04;100498.66;1721209;81;21053;-62
2021/06/10 10:00:57;;;;;;;2.65;1.60;;;;;;;23.43;65.96;100491.05;1717744;81;21083;-62
2021/06/10 10:03:32;;;;;;;2.00;1.50;;;;;;;23.46;65.86;100486.80;1735943;81;21056;-62
2021/06/10 10:06:05;;;;;;;3.33;1.82;;;;;;;23.46;65.78;100482.05;1737212;81;21175;-62
2021/06/10 10:08:33;;;;;;;1.67;1.47;;;;;;;23.48;65.70;100482.50;1735512;81;21509;-62
2021/06/10 10:11:02;;;;;;;2.33;1.62;;;;;;;23.50;65.63;100485.77;1719080;81;21037;-62
2021/06/10 10:13:30;;;;;;;3.27;1.72;;;;;;;23.51;65.58;100479.03;1738234;81;21031;-63
2021/06/10 10:16:03;;;;;;;2.22;1.40;;;;;;;23.56;65.50;100478.00;1718341;81;20853;-62
2021/06/10 10:18:29;;;;;;;2.20;1.60;;;;;;;23.60;65.46;100474.19;1726455;81;21110;-62
2021/06/10 10:21:02;;;;;;;2.20;1.60;;;;;;;23.66;65.49;100470.61;1723606;81;21479;-62
2021/06/10 10:23:28;;;;;;;2.77;1.72;;;;;;;23.73;65.51;100475.58;1717778;81;21562;-62
2021/06/10 10:26:00;;;;;;;1.70;1.60;;;;;;;23.77;65.54;100470.95;1705320;83;21078;-62
2021/06/10 10:28:34;;;;;;;2.92;1.87;;;;;;;23.81;65.48;100471.88;1716376;81;21028;-61
2021/06/10 10:31:00;;;;;;;2.00;1.55;;;;;;;23.85;65.40;100470.05;1700973;83;22046;-62
2021/06/10 10:33:26;;;;;;;4.22;2.12;;;;;;;23.86;65.32;100471.64;1718329;82;21032;-62
2021/06/10 10:35:57;;;;;;;2.35;1.80;;;;;;;23.87;65.24;100467.72;1714683;81;21468;-63
2021/06/10 10:38:34;;;;;;;2.70;1.87;;;;;;;23.88;65.20;100474.91;1704531;83;21566;-62
2021/06/10 10:41:11;;;;;;;1.85;1.55;;;;;;;23.89;65.14;100470.97;1699532;83;21492;-62
2021/06/10 10:43:38;;;;;;;2.37;1.70;;;;;;;23.91;65.10;100468.06;1705310;83;22089;-62
2021/06/10 10:46:16;;;;;;;2.50;1.70;;;;;;;23.95;65.02;100468.17;1701330;83;21082;-62
2021/06/10 10:48:44;;;;;;;2.58;1.50;;;;;;;23.98;65.01;100469.67;1707386;83;21052;-62
2021/06/10 10:51:33;;;;;;;2.67;1.92;;;;;;;24.02;65.08;100460.87;1720471;81;21055;-62
2021/06/10 10:54:02;;;;;;;2.10;1.40;;;;;;;24.04;65.12;100465.51;1698079;83;21463;-63
2021/06/10 10:56:40;;;;;;;2.58;2.02;;;;;;;24.05;65.14;100457.98;1718786;81;22012;-62
2021/06/10 10:59:17;;;;;;;2.37;2.05;;;;;;;24.06;65.12;100459.01;1714490;81;21434;-63
2021/06/10 11:02:10;;;;;;;2.40;1.80;;;;;;;24.06;65.10;100453.45;1717288;82;21111;-62
2021/06/10 11:05:07;;;;;;;2.35;1.87;;;;;;;24.06;65.04;100449.89;1706426;82;21110;-62
2021/06/10 11:07:39;;;;;;;2.27;1.55;;;;;;;24.07;64.99;100448.70;1707621;82;21040;-62
2021/06/10 11:10:15;;;;;;;2.60;1.90;;;;;;;24.06;64.92;100445.72;1693416;83;21159;-62
2021/06/10 11:12:53;;;;;;;2.15;1.67;;;;;;;24.04;64.87;100444.67;1713949;81;21455;-63
2021/06/10 11:15:33;;;;;;;1.90;1.60;;;;;;;24.06;64.85;100444.33;1687355;83;21105;-63
2021/06/10 11:17:59;;;;;;;1.80;1.57;;;;;;;24.08;64.82;100441.42;1708450;81;21523;-62
2021/06/10 11:20:40;;;;;;;2.95;1.60;;;;;;;24.13;64.73;100429.25;1689043;83;21337;-62
2021/06/10 11:23:25;;;;;;;1.90;1.40;;;;;;;24.18;64.71;100426.27;1721955;80;21466;-62
2021/06/10 11:25:50;;;;;;;1.80;1.57;;;;;;;24.22;64.77;100423.02;1725172;81;21025;-62
2021/06/10 11:28:19;;;;;;;2.00;1.45;;;;;;;24.28;64.85;100428.54;1737013;81;20992;-62
2021/06/10 11:30:47;;;;;;;3.02;1.60;;;;;;;24.33;64.89;100425.52;1738340;81;21020;-62
2021/06/10 11:33:22;;;;;;;2.55;1.65;;;;;;;24.38;64.87;100425.28;1710249;81;21056;-62